sensor_id;sensor_type;location;lat;lon;timestamp;P1;durP1;ratioP1;P2;durP2;ratioP2
43670;SDS011;29267;50.906;7.248;2022-11-20T00:01:40;19.55;;;9.88;;
43670;SDS011;29267;50.906;7.248;2022-11-20T00:04:05;16.67;;;8.18;;
43670;SDS011;29267;50.906;7.248;2022-11-20T00:06:31;17.27;;;8.38;;
43670;SDS011;29267;50.906;7.248;2022-11-20T00:08:57;20.70;;;9.55;;
43670;SDS011;29267;50.906;7.248;2022-11-20T00:11:26;15.63;;;8.80;;
43670;SDS011;29267;50.906;7.248;2022-11-20T00:13:53;15.95;;;8.73;;
43670;SDS011;29267;50.906;7.248;2022-11-20T00:16:22;15.88;;;8.38;;
43670;SDS011;29267;50.906;7.248;2022-11-20T00:18:49;17.73;;;8.65;;
43670;SDS011;29267;50.906;7.248;2022-11-20T00:21:19;16.77;;;8.88;;
43670;SDS011;29267;50.906;7.248;2022-11-20T00:23:46;18.25;;;8.73;;
43670;SDS011;29267;50.906;7.248;2022-11-20T00:26:13;15.10;;;8.25;;
43670;SDS011;29267;50.906;7.248;2022-11-20T00:28:40;16.02;;;8.52;;
43670;SDS011;29267;50.906;7.248;2022-11-20T00:31:07;17.98;;;7.97;;
43670;SDS011;29267;50.906;7.248;2022-11-20T00:33:35;16.98;;;7.63;;
43670;SDS011;29267;50.906;7.248;2022-11-20T00:36:01;17.13;;;8.65;;
43670;SDS011;29267;50.906;7.248;2022-11-20T00:38:34;17.13;;;8.68;;
43670;SDS011;29267;50.906;7.248;2022-11-20T00:41:01;14.98;;;8.05;;
43670;SDS011;29267;50.906;7.248;2022-11-20T00:43:31;15.90;;;8.23;;
43670;SDS011;29267;50.906;7.248;2022-11-20T00:45:58;14.93;;;8.32;;
43670;SDS011;29267;50.906;7.248;2022-11-20T00:48:29;17.55;;;8.70;;
43670;SDS011;29267;50.906;7.248;2022-11-20T00:50:55;14.10;;;8.13;;
43670;SDS011;29267;50.906;7.248;2022-11-20T00:53:21;19.92;;;9.40;;
43670;SDS011;29267;50.906;7.248;2022-11-20T00:55:54;14.43;;;7.85;;
43670;SDS011;29267;50.906;7.248;2022-11-20T00:58:23;16.27;;;8.57;;
43670;SDS011;29267;50.906;7.248;2022-11-20T01:00:49;16.92;;;8.93;;
43670;SDS011;29267;50.906;7.248;2022-11-20T01:03:15;17.17;;;8.82;;
43670;SDS011;29267;50.906;7.248;2022-11-20T01:05:41;16.65;;;8.10;;
43670;SDS011;29267;50.906;7.248;2022-11-20T01:08:07;18.35;;;9.02;;
43670;SDS011;29267;50.906;7.248;2022-11-20T01:10:33;18.30;;;9.07;;
43670;SDS011;29267;50.906;7.248;2022-11-20T01:12:58;19.55;;;9.23;;
43670;SDS011;29267;50.906;7.248;2022-11-20T01:15:42;16.67;;;8.02;;
43670;SDS011;29267;50.906;7.248;2022-11-20T01:18:08;16.42;;;8.45;;
43670;SDS011;29267;50.906;7.248;2022-11-20T01:20:34;16.75;;;8.00;;
43670;SDS011;29267;50.906;7.248;2022-11-20T01:23:01;15.18;;;8.23;;
43670;SDS011;29267;50.906;7.248;2022-11-20T01:25:27;15.95;;;9.20;;
43670;SDS011;29267;50.906;7.248;2022-11-20T01:27:52;14.10;;;7.75;;
43670;SDS011;29267;50.906;7.248;2022-11-20T01:30:18;15.52;;;8.52;;
43670;SDS011;29267;50.906;7.248;2022-11-20T01:32:43;16.35;;;9.30;;
43670;SDS011;29267;50.906;7.248;2022-11-20T01:35:09;13.23;;;6.78;;
43670;SDS011;29267;50.906;7.248;2022-11-20T01:37:35;14.93;;;8.15;;
43670;SDS011;29267;50.906;7.248;2022-11-20T01:40:00;16.17;;;8.13;;
43670;SDS011;29267;50.906;7.248;2022-11-20T01:42:26;17.17;;;9.07;;
43670;SDS011;29267;50.906;7.248;2022-11-20T01:48:10;17.42;;;9.02;;
43670;SDS011;29267;50.906;7.248;2022-11-20T01:50:36;15.88;;;8.60;;
43670;SDS011;29267;50.906;7.248;2022-11-20T01:53:03;18.45;;;8.40;;
43670;SDS011;29267;50.906;7.248;2022-11-20T01:55:33;12.52;;;7.93;;
43670;SDS011;29267;50.906;7.248;2022-11-20T01:58:01;17.65;;;9.05;;
43670;SDS011;29267;50.906;7.248;2022-11-20T02:00:27;17.30;;;9.18;;
43670;SDS011;29267;50.906;7.248;2022-11-20T02:02:54;19.98;;;9.48;;
43670;SDS011;29267;50.906;7.248;2022-11-20T02:05:33;14.05;;;8.43;;
43670;SDS011;29267;50.906;7.248;2022-11-20T02:08:12;18.02;;;8.70;;
43670;SDS011;29267;50.906;7.248;2022-11-20T02:10:38;15.95;;;8.60;;
43670;SDS011;29267;50.906;7.248;2022-11-20T02:13:04;17.90;;;8.50;;
43670;SDS011;29267;50.906;7.248;2022-11-20T02:15:49;17.80;;;8.52;;
43670;SDS011;29267;50.906;7.248;2022-11-20T02:18:16;17.67;;;8.90;;
43670;SDS011;29267;50.906;7.248;2022-11-20T02:20:44;16.73;;;9.00;;
43670;SDS011;29267;50.906;7.248;2022-11-20T02:23:12;15.93;;;8.82;;
43670;SDS011;29267;50.906;7.248;2022-11-20T02:25:39;19.58;;;9.65;;
43670;SDS011;29267;50.906;7.248;2022-11-20T02:28:07;16.80;;;8.43;;
43670;SDS011;29267;50.906;7.248;2022-11-20T02:30:34;20.95;;;9.23;;
43670;SDS011;29267;50.906;7.248;2022-11-20T02:32:59;16.58;;;9.52;;
43670;SDS011;29267;50.906;7.248;2022-11-20T02:37:51;20.30;;;9.13;;
43670;SDS011;29267;50.906;7.248;2022-11-20T02:40:19;15.10;;;7.47;;
43670;SDS011;29267;50.906;7.248;2022-11-20T02:42:45;20.35;;;9.05;;
43670;SDS011;29267;50.906;7.248;2022-11-20T02:45:11;16.17;;;8.60;;
43670;SDS011;29267;50.906;7.248;2022-11-20T02:47:37;16.73;;;8.90;;
43670;SDS011;29267;50.906;7.248;2022-11-20T02:50:03;18.23;;;8.90;;
43670;SDS011;29267;50.906;7.248;2022-11-20T02:52:29;19.75;;;8.68;;
43670;SDS011;29267;50.906;7.248;2022-11-20T02:54:55;18.55;;;9.20;;
43670;SDS011;29267;50.906;7.248;2022-11-20T02:57:21;19.33;;;9.18;;
43670;SDS011;29267;50.906;7.248;2022-11-20T02:59:46;18.42;;;9.07;;
43670;SDS011;29267;50.906;7.248;2022-11-20T03:02:12;17.38;;;9.45;;
43670;SDS011;29267;50.906;7.248;2022-11-20T03:04:37;21.30;;;10.50;;
43670;SDS011;29267;50.906;7.248;2022-11-20T03:07:03;18.42;;;9.73;;
43670;SDS011;29267;50.906;7.248;2022-11-20T03:09:29;19.52;;;9.05;;
43670;SDS011;29267;50.906;7.248;2022-11-20T03:11:54;18.52;;;10.10;;
43670;SDS011;29267;50.906;7.248;2022-11-20T03:14:20;18.70;;;8.90;;
43670;SDS011;29267;50.906;7.248;2022-11-20T03:16:45;16.15;;;9.23;;
43670;SDS011;29267;50.906;7.248;2022-11-20T03:19:11;18.17;;;8.48;;
43670;SDS011;29267;50.906;7.248;2022-11-20T03:21:37;18.67;;;10.40;;
43670;SDS011;29267;50.906;7.248;2022-11-20T03:24:03;19.92;;;9.43;;
43670;SDS011;29267;50.906;7.248;2022-11-20T03:26:28;18.65;;;9.18;;
43670;SDS011;29267;50.906;7.248;2022-11-20T03:28:55;18.85;;;9.88;;
43670;SDS011;29267;50.906;7.248;2022-11-20T03:31:29;27.88;;;10.55;;
43670;SDS011;29267;50.906;7.248;2022-11-20T03:33:57;18.88;;;9.23;;
43670;SDS011;29267;50.906;7.248;2022-11-20T03:36:25;15.35;;;9.23;;
43670;SDS011;29267;50.906;7.248;2022-11-20T03:38:52;18.02;;;9.52;;
43670;SDS011;29267;50.906;7.248;2022-11-20T03:41:19;19.38;;;10.05;;
43670;SDS011;29267;50.906;7.248;2022-11-20T03:43:50;21.15;;;9.77;;
43670;SDS011;29267;50.906;7.248;2022-11-20T03:46:16;19.83;;;10.10;;
43670;SDS011;29267;50.906;7.248;2022-11-20T03:48:42;18.27;;;9.25;;
43670;SDS011;29267;50.906;7.248;2022-11-20T03:51:09;16.40;;;8.45;;
43670;SDS011;29267;50.906;7.248;2022-11-20T03:53:37;22.35;;;10.13;;
43670;SDS011;29267;50.906;7.248;2022-11-20T03:56:03;17.80;;;9.40;;
43670;SDS011;29267;50.906;7.248;2022-11-20T03:58:29;20.02;;;10.02;;
43670;SDS011;29267;50.906;7.248;2022-11-20T04:00:55;18.65;;;9.40;;
43670;SDS011;29267;50.906;7.248;2022-11-20T04:03:21;18.45;;;9.68;;
43670;SDS011;29267;50.906;7.248;2022-11-20T04:05:46;19.15;;;9.88;;
43670;SDS011;29267;50.906;7.248;2022-11-20T04:08:12;19.80;;;10.32;;
43670;SDS011;29267;50.906;7.248;2022-11-20T04:10:37;17.10;;;8.38;;
43670;SDS011;29267;50.906;7.248;2022-11-20T04:13:03;20.48;;;9.48;;
43670;SDS011;29267;50.906;7.248;2022-11-20T04:15:28;19.67;;;10.00;;
43670;SDS011;29267;50.906;7.248;2022-11-20T04:17:54;17.15;;;9.43;;
43670;SDS011;29267;50.906;7.248;2022-11-20T04:20:19;16.77;;;9.55;;
43670;SDS011;29267;50.906;7.248;2022-11-20T04:22:45;20.45;;;9.48;;
43670;SDS011;29267;50.906;7.248;2022-11-20T04:25:10;15.35;;;8.68;;
43670;SDS011;29267;50.906;7.248;2022-11-20T04:27:36;19.02;;;9.90;;
43670;SDS011;29267;50.906;7.248;2022-11-20T04:30:02;21.10;;;10.55;;
43670;SDS011;29267;50.906;7.248;2022-11-20T04:32:27;19.05;;;10.55;;
43670;SDS011;29267;50.906;7.248;2022-11-20T04:34:53;23.73;;;10.27;;
43670;SDS011;29267;50.906;7.248;2022-11-20T04:37:18;18.73;;;9.73;;
43670;SDS011;29267;50.906;7.248;2022-11-20T04:39:44;20.00;;;10.48;;
43670;SDS011;29267;50.906;7.248;2022-11-20T04:42:10;20.23;;;9.48;;
43670;SDS011;29267;50.906;7.248;2022-11-20T04:44:54;17.38;;;9.57;;
43670;SDS011;29267;50.906;7.248;2022-11-20T04:47:20;20.38;;;8.82;;
43670;SDS011;29267;50.906;7.248;2022-11-20T04:49:46;20.38;;;10.60;;
43670;SDS011;29267;50.906;7.248;2022-11-20T04:52:11;21.67;;;10.10;;
43670;SDS011;29267;50.906;7.248;2022-11-20T04:54:37;20.70;;;11.45;;
43670;SDS011;29267;50.906;7.248;2022-11-20T04:57:03;21.05;;;10.77;;
43670;SDS011;29267;50.906;7.248;2022-11-20T04:59:28;17.27;;;9.32;;
43670;SDS011;29267;50.906;7.248;2022-11-20T05:01:54;18.02;;;9.27;;
43670;SDS011;29267;50.906;7.248;2022-11-20T05:04:19;19.90;;;10.20;;
43670;SDS011;29267;50.906;7.248;2022-11-20T05:06:45;18.42;;;9.50;;
43670;SDS011;29267;50.906;7.248;2022-11-20T05:09:11;17.30;;;9.50;;
43670;SDS011;29267;50.906;7.248;2022-11-20T05:11:37;16.52;;;8.63;;
43670;SDS011;29267;50.906;7.248;2022-11-20T05:14:02;20.73;;;11.20;;
43670;SDS011;29267;50.906;7.248;2022-11-20T05:16:28;19.40;;;9.80;;
43670;SDS011;29267;50.906;7.248;2022-11-20T05:18:54;20.48;;;10.07;;
43670;SDS011;29267;50.906;7.248;2022-11-20T05:21:20;21.30;;;9.98;;
43670;SDS011;29267;50.906;7.248;2022-11-20T05:23:46;22.85;;;10.77;;
43670;SDS011;29267;50.906;7.248;2022-11-20T05:26:16;21.45;;;10.45;;
43670;SDS011;29267;50.906;7.248;2022-11-20T05:28:49;20.40;;;11.80;;
43670;SDS011;29267;50.906;7.248;2022-11-20T05:31:16;20.35;;;10.45;;
43670;SDS011;29267;50.906;7.248;2022-11-20T05:33:46;19.58;;;9.80;;
43670;SDS011;29267;50.906;7.248;2022-11-20T05:36:12;20.13;;;9.13;;
43670;SDS011;29267;50.906;7.248;2022-11-20T05:38:38;18.95;;;9.20;;
43670;SDS011;29267;50.906;7.248;2022-11-20T05:43:36;22.73;;;10.68;;
43670;SDS011;29267;50.906;7.248;2022-11-20T05:46:03;19.77;;;9.13;;
43670;SDS011;29267;50.906;7.248;2022-11-20T05:48:29;22.17;;;9.88;;
43670;SDS011;29267;50.906;7.248;2022-11-20T05:50:59;21.83;;;10.55;;
43670;SDS011;29267;50.906;7.248;2022-11-20T05:53:27;22.25;;;9.90;;
43670;SDS011;29267;50.906;7.248;2022-11-20T05:55:59;18.90;;;9.70;;
43670;SDS011;29267;50.906;7.248;2022-11-20T05:58:30;22.60;;;10.30;;
43670;SDS011;29267;50.906;7.248;2022-11-20T06:01:03;17.35;;;9.57;;
43670;SDS011;29267;50.906;7.248;2022-11-20T06:03:29;24.27;;;10.75;;
43670;SDS011;29267;50.906;7.248;2022-11-20T06:05:55;21.98;;;11.25;;
43670;SDS011;29267;50.906;7.248;2022-11-20T06:08:20;19.58;;;9.50;;
43670;SDS011;29267;50.906;7.248;2022-11-20T06:10:46;19.65;;;9.80;;
43670;SDS011;29267;50.906;7.248;2022-11-20T06:13:11;22.50;;;10.40;;
43670;SDS011;29267;50.906;7.248;2022-11-20T06:15:37;18.63;;;10.20;;
43670;SDS011;29267;50.906;7.248;2022-11-20T06:18:03;20.05;;;10.68;;
43670;SDS011;29267;50.906;7.248;2022-11-20T06:20:28;22.27;;;11.23;;
43670;SDS011;29267;50.906;7.248;2022-11-20T06:22:54;26.85;;;11.30;;
43670;SDS011;29267;50.906;7.248;2022-11-20T06:25:19;22.65;;;12.23;;
43670;SDS011;29267;50.906;7.248;2022-11-20T06:27:45;20.95;;;10.25;;
43670;SDS011;29267;50.906;7.248;2022-11-20T06:30:11;22.05;;;10.70;;
43670;SDS011;29267;50.906;7.248;2022-11-20T06:32:37;26.27;;;12.55;;
43670;SDS011;29267;50.906;7.248;2022-11-20T06:35:02;23.08;;;11.10;;
43670;SDS011;29267;50.906;7.248;2022-11-20T06:37:28;28.23;;;11.35;;
43670;SDS011;29267;50.906;7.248;2022-11-20T06:39:54;22.48;;;11.65;;
43670;SDS011;29267;50.906;7.248;2022-11-20T06:42:19;21.10;;;10.57;;
43670;SDS011;29267;50.906;7.248;2022-11-20T06:44:45;21.23;;;10.32;;
43670;SDS011;29267;50.906;7.248;2022-11-20T06:47:10;23.85;;;12.10;;
43670;SDS011;29267;50.906;7.248;2022-11-20T06:49:36;25.33;;;12.20;;
43670;SDS011;29267;50.906;7.248;2022-11-20T06:52:03;25.50;;;12.07;;
43670;SDS011;29267;50.906;7.248;2022-11-20T06:54:29;21.60;;;10.60;;
43670;SDS011;29267;50.906;7.248;2022-11-20T06:56:55;25.13;;;10.90;;
43670;SDS011;29267;50.906;7.248;2022-11-20T06:59:20;20.08;;;10.07;;
43670;SDS011;29267;50.906;7.248;2022-11-20T07:01:46;22.20;;;11.23;;
43670;SDS011;29267;50.906;7.248;2022-11-20T07:04:11;23.40;;;11.57;;
43670;SDS011;29267;50.906;7.248;2022-11-20T07:06:37;27.92;;;12.70;;
43670;SDS011;29267;50.906;7.248;2022-11-20T07:09:03;24.35;;;13.25;;
43670;SDS011;29267;50.906;7.248;2022-11-20T07:11:29;23.50;;;11.35;;
43670;SDS011;29267;50.906;7.248;2022-11-20T07:13:56;25.48;;;12.60;;
43670;SDS011;29267;50.906;7.248;2022-11-20T07:16:22;21.73;;;11.25;;
43670;SDS011;29267;50.906;7.248;2022-11-20T07:18:47;24.00;;;11.38;;
43670;SDS011;29267;50.906;7.248;2022-11-20T07:21:13;23.83;;;11.45;;
43670;SDS011;29267;50.906;7.248;2022-11-20T07:23:38;25.88;;;10.80;;
43670;SDS011;29267;50.906;7.248;2022-11-20T07:26:05;24.45;;;11.55;;
43670;SDS011;29267;50.906;7.248;2022-11-20T07:28:31;22.20;;;10.75;;
43670;SDS011;29267;50.906;7.248;2022-11-20T07:30:57;23.65;;;11.25;;
43670;SDS011;29267;50.906;7.248;2022-11-20T07:33:22;22.58;;;10.65;;
43670;SDS011;29267;50.906;7.248;2022-11-20T07:35:48;21.70;;;10.43;;
43670;SDS011;29267;50.906;7.248;2022-11-20T07:38:13;21.88;;;11.32;;
43670;SDS011;29267;50.906;7.248;2022-11-20T07:40:39;23.73;;;11.50;;
43670;SDS011;29267;50.906;7.248;2022-11-20T07:43:05;22.17;;;12.68;;
43670;SDS011;29267;50.906;7.248;2022-11-20T07:45:30;24.77;;;13.25;;
43670;SDS011;29267;50.906;7.248;2022-11-20T07:47:56;26.42;;;13.40;;
43670;SDS011;29267;50.906;7.248;2022-11-20T07:50:21;27.00;;;13.35;;
43670;SDS011;29267;50.906;7.248;2022-11-20T07:52:47;26.05;;;11.73;;
43670;SDS011;29267;50.906;7.248;2022-11-20T07:55:13;23.55;;;11.68;;
43670;SDS011;29267;50.906;7.248;2022-11-20T07:57:38;24.20;;;12.02;;
43670;SDS011;29267;50.906;7.248;2022-11-20T08:00:05;25.55;;;12.05;;
43670;SDS011;29267;50.906;7.248;2022-11-20T08:02:33;23.35;;;11.82;;
43670;SDS011;29267;50.906;7.248;2022-11-20T08:05:01;24.13;;;12.68;;
43670;SDS011;29267;50.906;7.248;2022-11-20T08:07:27;23.40;;;12.45;;
43670;SDS011;29267;50.906;7.248;2022-11-20T08:09:52;23.35;;;12.18;;
43670;SDS011;29267;50.906;7.248;2022-11-20T08:12:18;23.45;;;12.82;;
43670;SDS011;29267;50.906;7.248;2022-11-20T08:15:03;23.08;;;11.02;;
43670;SDS011;29267;50.906;7.248;2022-11-20T08:17:30;24.17;;;13.35;;
43670;SDS011;29267;50.906;7.248;2022-11-20T08:19:55;24.02;;;11.60;;
43670;SDS011;29267;50.906;7.248;2022-11-20T08:22:21;28.63;;;12.27;;
43670;SDS011;29267;50.906;7.248;2022-11-20T08:24:46;26.02;;;13.00;;
43670;SDS011;29267;50.906;7.248;2022-11-20T08:27:13;26.55;;;13.77;;
43670;SDS011;29267;50.906;7.248;2022-11-20T08:29:38;30.42;;;14.40;;
43670;SDS011;29267;50.906;7.248;2022-11-20T08:32:04;25.63;;;12.57;;
43670;SDS011;29267;50.906;7.248;2022-11-20T08:34:29;26.70;;;12.75;;
43670;SDS011;29267;50.906;7.248;2022-11-20T08:36:55;22.58;;;11.60;;
43670;SDS011;29267;50.906;7.248;2022-11-20T08:39:20;21.83;;;11.85;;
43670;SDS011;29267;50.906;7.248;2022-11-20T08:41:46;22.98;;;12.82;;
43670;SDS011;29267;50.906;7.248;2022-11-20T08:44:11;27.50;;;13.10;;
43670;SDS011;29267;50.906;7.248;2022-11-20T08:46:38;27.27;;;12.15;;
43670;SDS011;29267;50.906;7.248;2022-11-20T08:49:06;21.55;;;10.90;;
43670;SDS011;29267;50.906;7.248;2022-11-20T08:51:37;23.42;;;12.02;;
43670;SDS011;29267;50.906;7.248;2022-11-20T08:54:03;24.50;;;12.27;;
43670;SDS011;29267;50.906;7.248;2022-11-20T08:56:29;22.50;;;12.00;;
43670;SDS011;29267;50.906;7.248;2022-11-20T08:58:55;26.30;;;12.32;;
43670;SDS011;29267;50.906;7.248;2022-11-20T09:01:21;24.17;;;12.43;;
43670;SDS011;29267;50.906;7.248;2022-11-20T09:03:48;26.25;;;12.20;;
43670;SDS011;29267;50.906;7.248;2022-11-20T09:06:14;23.23;;;12.80;;
43670;SDS011;29267;50.906;7.248;2022-11-20T09:08:41;23.83;;;11.80;;
43670;SDS011;29267;50.906;7.248;2022-11-20T09:11:07;38.30;;;20.63;;
43670;SDS011;29267;50.906;7.248;2022-11-20T09:13:33;25.58;;;13.13;;
43670;SDS011;29267;50.906;7.248;2022-11-20T09:16:04;22.92;;;12.13;;
43670;SDS011;29267;50.906;7.248;2022-11-20T09:18:31;22.17;;;11.48;;
43670;SDS011;29267;50.906;7.248;2022-11-20T09:21:01;24.73;;;11.55;;
43670;SDS011;29267;50.906;7.248;2022-11-20T09:23:30;21.25;;;11.88;;
43670;SDS011;29267;50.906;7.248;2022-11-20T09:25:57;24.63;;;11.73;;
43670;SDS011;29267;50.906;7.248;2022-11-20T09:28:25;26.60;;;12.82;;
43670;SDS011;29267;50.906;7.248;2022-11-20T09:30:50;29.80;;;11.93;;
43670;SDS011;29267;50.906;7.248;2022-11-20T09:33:16;24.50;;;12.55;;
43670;SDS011;29267;50.906;7.248;2022-11-20T09:35:42;23.00;;;12.45;;
43670;SDS011;29267;50.906;7.248;2022-11-20T09:38:10;29.55;;;14.18;;
43670;SDS011;29267;50.906;7.248;2022-11-20T09:40:37;25.75;;;12.00;;
43670;SDS011;29267;50.906;7.248;2022-11-20T09:51:31;25.50;;;12.45;;
43670;SDS011;29267;50.906;7.248;2022-11-20T09:54:19;21.38;;;10.82;;
43670;SDS011;29267;50.906;7.248;2022-11-20T09:56:52;21.83;;;11.20;;
43670;SDS011;29267;50.906;7.248;2022-11-20T10:00:04;22.48;;;11.43;;
43670;SDS011;29267;50.906;7.248;2022-11-20T10:02:58;21.08;;;11.02;;
43670;SDS011;29267;50.906;7.248;2022-11-20T10:05:25;25.27;;;11.70;;
43670;SDS011;29267;50.906;7.248;2022-11-20T10:07:58;23.38;;;10.68;;
43670;SDS011;29267;50.906;7.248;2022-11-20T10:10:40;19.98;;;9.98;;
43670;SDS011;29267;50.906;7.248;2022-11-20T10:18:38;20.55;;;10.52;;
43670;SDS011;29267;50.906;7.248;2022-11-20T10:21:33;21.33;;;10.57;;
43670;SDS011;29267;50.906;7.248;2022-11-20T10:29:32;23.08;;;10.70;;
43670;SDS011;29267;50.906;7.248;2022-11-20T10:32:00;20.58;;;10.45;;
43670;SDS011;29267;50.906;7.248;2022-11-20T10:34:39;18.88;;;9.18;;
43670;SDS011;29267;50.906;7.248;2022-11-20T10:37:21;18.63;;;10.20;;
43670;SDS011;29267;50.906;7.248;2022-11-20T10:39:57;24.48;;;11.52;;
43670;SDS011;29267;50.906;7.248;2022-11-20T10:42:44;23.25;;;10.77;;
43670;SDS011;29267;50.906;7.248;2022-11-20T10:45:43;22.90;;;11.45;;
43670;SDS011;29267;50.906;7.248;2022-11-20T10:48:27;21.25;;;12.20;;
43670;SDS011;29267;50.906;7.248;2022-11-20T10:53:31;22.38;;;11.82;;
43670;SDS011;29267;50.906;7.248;2022-11-20T10:56:55;29.05;;;13.20;;
43670;SDS011;29267;50.906;7.248;2022-11-20T11:01:58;25.15;;;13.15;;
43670;SDS011;29267;50.906;7.248;2022-11-20T11:09:43;26.42;;;13.32;;
43670;SDS011;29267;50.906;7.248;2022-11-20T11:12:12;22.30;;;11.18;;
43670;SDS011;29267;50.906;7.248;2022-11-20T11:14:48;24.90;;;12.88;;
43670;SDS011;29267;50.906;7.248;2022-11-20T11:17:28;23.17;;;12.40;;
43670;SDS011;29267;50.906;7.248;2022-11-20T11:22:48;26.80;;;12.25;;
43670;SDS011;29267;50.906;7.248;2022-11-20T11:27:47;23.77;;;11.82;;
43670;SDS011;29267;50.906;7.248;2022-11-20T11:30:15;24.70;;;12.68;;
43670;SDS011;29267;50.906;7.248;2022-11-20T11:32:42;26.38;;;13.55;;
43670;SDS011;29267;50.906;7.248;2022-11-20T11:35:25;20.40;;;11.65;;
43670;SDS011;29267;50.906;7.248;2022-11-20T11:37:53;23.57;;;11.83;;
43670;SDS011;29267;50.906;7.248;2022-11-20T11:40:26;24.33;;;12.63;;
43670;SDS011;29267;50.906;7.248;2022-11-20T11:43:05;29.35;;;12.82;;
43670;SDS011;29267;50.906;7.248;2022-11-20T11:46:01;22.02;;;11.63;;
43670;SDS011;29267;50.906;7.248;2022-11-20T11:48:27;23.30;;;12.77;;
43670;SDS011;29267;50.906;7.248;2022-11-20T11:50:52;23.40;;;11.80;;
43670;SDS011;29267;50.906;7.248;2022-11-20T11:53:19;24.42;;;12.38;;
43670;SDS011;29267;50.906;7.248;2022-11-20T12:07:00;25.38;;;12.80;;
43670;SDS011;29267;50.906;7.248;2022-11-20T12:09:35;23.85;;;12.27;;
43670;SDS011;29267;50.906;7.248;2022-11-20T12:12:08;24.92;;;12.63;;
43670;SDS011;29267;50.906;7.248;2022-11-20T12:14:40;24.42;;;11.93;;
43670;SDS011;29267;50.906;7.248;2022-11-20T12:17:10;25.85;;;11.60;;
43670;SDS011;29267;50.906;7.248;2022-11-20T12:19:37;20.88;;;11.30;;
43670;SDS011;29267;50.906;7.248;2022-11-20T12:25:08;21.83;;;11.27;;
43670;SDS011;29267;50.906;7.248;2022-11-20T12:28:03;21.50;;;11.35;;
43670;SDS011;29267;50.906;7.248;2022-11-20T12:31:34;24.20;;;11.50;;
43670;SDS011;29267;50.906;7.248;2022-11-20T12:36:17;22.40;;;11.52;;
43670;SDS011;29267;50.906;7.248;2022-11-20T12:41:31;21.38;;;11.75;;
43670;SDS011;29267;50.906;7.248;2022-11-20T12:47:56;24.92;;;11.77;;
43670;SDS011;29267;50.906;7.248;2022-11-20T13:01:50;29.13;;;11.25;;
43670;SDS011;29267;50.906;7.248;2022-11-20T13:04:39;20.45;;;10.13;;
43670;SDS011;29267;50.906;7.248;2022-11-20T13:07:31;24.17;;;11.15;;
43670;SDS011;29267;50.906;7.248;2022-11-20T13:09:59;27.00;;;11.98;;
43670;SDS011;29267;50.906;7.248;2022-11-20T13:15:04;19.92;;;10.32;;
43670;SDS011;29267;50.906;7.248;2022-11-20T13:17:50;20.73;;;9.60;;
43670;SDS011;29267;50.906;7.248;2022-11-20T13:20:20;21.50;;;10.85;;
43670;SDS011;29267;50.906;7.248;2022-11-20T13:22:49;24.77;;;10.93;;
43670;SDS011;29267;50.906;7.248;2022-11-20T13:27:53;20.52;;;11.48;;
43670;SDS011;29267;50.906;7.248;2022-11-20T13:30:21;18.10;;;10.85;;
43670;SDS011;29267;50.906;7.248;2022-11-20T13:32:52;22.92;;;11.10;;
43670;SDS011;29267;50.906;7.248;2022-11-20T13:35:25;20.73;;;10.48;;
43670;SDS011;29267;50.906;7.248;2022-11-20T13:40:32;27.92;;;10.65;;
43670;SDS011;29267;50.906;7.248;2022-11-20T13:45:33;21.35;;;10.57;;
43670;SDS011;29267;50.906;7.248;2022-11-20T13:48:16;21.80;;;10.95;;
43670;SDS011;29267;50.906;7.248;2022-11-20T13:50:51;22.58;;;11.25;;
43670;SDS011;29267;50.906;7.248;2022-11-20T13:59:44;22.20;;;10.70;;
43670;SDS011;29267;50.906;7.248;2022-11-20T14:02:15;23.92;;;11.20;;
43670;SDS011;29267;50.906;7.248;2022-11-20T14:04:43;28.40;;;10.20;;
43670;SDS011;29267;50.906;7.248;2022-11-20T14:07:12;22.27;;;11.05;;
43670;SDS011;29267;50.906;7.248;2022-11-20T14:09:38;25.15;;;12.48;;
43670;SDS011;29267;50.906;7.248;2022-11-20T14:12:19;22.33;;;11.80;;
43670;SDS011;29267;50.906;7.248;2022-11-20T14:14:47;26.70;;;14.07;;
43670;SDS011;29267;50.906;7.248;2022-11-20T14:17:18;23.30;;;12.70;;
43670;SDS011;29267;50.906;7.248;2022-11-20T14:19:45;21.95;;;10.90;;
43670;SDS011;29267;50.906;7.248;2022-11-20T14:22:23;22.10;;;11.73;;
43670;SDS011;29267;50.906;7.248;2022-11-20T14:27:38;23.88;;;12.15;;
43670;SDS011;29267;50.906;7.248;2022-11-20T14:30:12;23.45;;;11.35;;
43670;SDS011;29267;50.906;7.248;2022-11-20T14:33:01;25.45;;;11.90;;
43670;SDS011;29267;50.906;7.248;2022-11-20T14:35:29;25.70;;;11.75;;
43670;SDS011;29267;50.906;7.248;2022-11-20T14:37:58;20.90;;;11.63;;
43670;SDS011;29267;50.906;7.248;2022-11-20T14:42:56;20.80;;;10.80;;
43670;SDS011;29267;50.906;7.248;2022-11-20T14:45:23;20.85;;;10.50;;
43670;SDS011;29267;50.906;7.248;2022-11-20T14:47:50;20.42;;;11.30;;
43670;SDS011;29267;50.906;7.248;2022-11-20T14:50:19;23.60;;;11.00;;
43670;SDS011;29267;50.906;7.248;2022-11-20T14:52:54;23.35;;;12.40;;
43670;SDS011;29267;50.906;7.248;2022-11-20T14:57:56;22.50;;;11.20;;
43670;SDS011;29267;50.906;7.248;2022-11-20T15:00:25;22.50;;;11.65;;
43670;SDS011;29267;50.906;7.248;2022-11-20T15:02:51;25.33;;;11.43;;
43670;SDS011;29267;50.906;7.248;2022-11-20T15:05:18;23.83;;;11.43;;
43670;SDS011;29267;50.906;7.248;2022-11-20T15:07:51;24.13;;;10.50;;
43670;SDS011;29267;50.906;7.248;2022-11-20T15:10:33;24.73;;;12.20;;
43670;SDS011;29267;50.906;7.248;2022-11-20T15:13:00;20.92;;;10.50;;
43670;SDS011;29267;50.906;7.248;2022-11-20T15:15:30;23.50;;;11.18;;
43670;SDS011;29267;50.906;7.248;2022-11-20T15:18:19;24.52;;;10.95;;
43670;SDS011;29267;50.906;7.248;2022-11-20T15:20:48;25.90;;;12.05;;
43670;SDS011;29267;50.906;7.248;2022-11-20T15:23:15;27.70;;;13.02;;
43670;SDS011;29267;50.906;7.248;2022-11-20T15:25:45;24.08;;;12.55;;
43670;SDS011;29267;50.906;7.248;2022-11-20T15:28:21;30.48;;;12.05;;
43670;SDS011;29267;50.906;7.248;2022-11-20T15:30:48;24.23;;;11.60;;
43670;SDS011;29267;50.906;7.248;2022-11-20T15:33:15;22.52;;;11.93;;
43670;SDS011;29267;50.906;7.248;2022-11-20T15:35:42;33.25;;;12.93;;
43670;SDS011;29267;50.906;7.248;2022-11-20T15:38:08;26.42;;;12.90;;
43670;SDS011;29267;50.906;7.248;2022-11-20T15:40:33;26.00;;;12.85;;
43670;SDS011;29267;50.906;7.248;2022-11-20T15:42:59;39.90;;;16.15;;
43670;SDS011;29267;50.906;7.248;2022-11-20T15:45:28;76.80;;;29.95;;
43670;SDS011;29267;50.906;7.248;2022-11-20T15:47:57;50.75;;;22.35;;
43670;SDS011;29267;50.906;7.248;2022-11-20T15:50:25;60.10;;;23.00;;
43670;SDS011;29267;50.906;7.248;2022-11-20T15:52:54;33.13;;;17.33;;
43670;SDS011;29267;50.906;7.248;2022-11-20T15:55:20;34.88;;;16.58;;
43670;SDS011;29267;50.906;7.248;2022-11-20T15:57:45;29.58;;;15.10;;
43670;SDS011;29267;50.906;7.248;2022-11-20T16:00:11;28.98;;;13.00;;
43670;SDS011;29267;50.906;7.248;2022-11-20T16:02:37;28.27;;;13.18;;
43670;SDS011;29267;50.906;7.248;2022-11-20T16:05:03;27.52;;;13.25;;
43670;SDS011;29267;50.906;7.248;2022-11-20T16:07:29;30.13;;;14.15;;
43670;SDS011;29267;50.906;7.248;2022-11-20T16:09:54;24.50;;;10.80;;
43670;SDS011;29267;50.906;7.248;2022-11-20T16:12:21;28.83;;;12.95;;
43670;SDS011;29267;50.906;7.248;2022-11-20T16:15:05;34.90;;;15.13;;
43670;SDS011;29267;50.906;7.248;2022-11-20T16:17:51;28.15;;;13.20;;
43670;SDS011;29267;50.906;7.248;2022-11-20T16:20:16;26.55;;;11.32;;